Time;durP1;ratioP1;P1;durP2;ratioP2;P2;SDS_P1;SDS_P2;PMS_P1;PMS_P2;Temp;Humidity;BMP_temperature;BMP_pressure;BME280_temperature;BME280_humidity;BME280_pressure;Samples;Min_cycle;Max_cycle;Signal;HPM_P1;HPM_P2
2022/07/22 00:02:09;;;;;;;;;;;;;;;19.92;63.09;95301.75;5136739;27;1992;-51
2022/07/22 00:04:35;;;;;;;;;;;;;;;19.86;63.03;95302.59;5136737;27;1047;-51
2022/07/22 00:07:01;;;;;;;;;;;;;;;19.92;62.84;95296.31;5136829;27;1015;-51
2022/07/22 00:09:27;;;;;;;;;;;;;;;19.85;63.27;95298.22;5136625;27;1229;-51
2022/07/22 00:11:52;;;;;;;;;;;;;;;19.70;63.68;95298.47;5136888;27;975;-51
2022/07/22 00:14:19;;;;;;;;;;;;;;;19.57;63.82;95295.78;5136527;27;962;-51
2022/07/22 00:16:45;;;;;;;;;;;;;;;19.54;64.03;95297.06;5136664;27;959;-51
2022/07/22 00:19:11;;;;;;;;;;;;;;;19.60;63.75;95303.50;5136569;27;1068;-51
2022/07/22 00:21:37;;;;;;;;;;;;;;;19.56;63.86;95300.38;5136718;27;1998;-51
2022/07/22 00:24:03;;;;;;;;;;;;;;;19.72;63.43;95300.97;5136267;27;925;-51
2022/07/22 00:26:29;;;;;;;;;;;;;;;19.59;63.95;95305.38;5136616;27;962;-51
2022/07/22 00:28:55;;;;;;;;;;;;;;;19.46;63.72;95295.41;5136323;27;1048;-51
2022/07/22 00:31:21;;;;;;;;;;;;;;;19.66;63.31;95299.94;5136209;27;1153;-51
2022/07/22 00:33:47;;;;;;;;;;;;;;;19.52;64.14;95301.88;5136162;27;1090;-51
2022/07/22 00:36:13;;;;;;;;;;;;;;;19.49;63.92;95302.28;5135832;27;1000;-50
2022/07/22 00:38:39;;;;;;;;;;;;;;;19.50;63.90;95295.81;5136067;27;1087;-51
2022/07/22 00:41:05;;;;;;;;;;;;;;;19.51;63.90;95302.91;5136081;27;1000;-51
2022/07/22 00:43:49;;;;;;;;;;;;;;;19.59;63.97;95302.66;5146881;27;1905;-51
2022/07/22 00:46:15;;;;;;;;;;;;;;;19.44;64.68;95304.78;5156689;27;967;-51
2022/07/22 00:48:41;;;;;;;;;;;;;;;19.55;63.78;95301.41;5156394;27;984;-50
2022/07/22 00:51:07;;;;;;;;;;;;;;;19.48;64.45;95306.88;5156561;27;1095;-51
2022/07/22 00:53:34;;;;;;;;;;;;;;;19.41;64.38;95307.94;5156771;27;1027;-51
2022/07/22 00:56:01;;;;;;;;;;;;;;;19.45;64.54;95303.75;5156408;27;1007;-51
2022/07/22 00:58:27;;;;;;;;;;;;;;;19.54;64.14;95302.50;5156596;27;1193;-51
2022/07/22 01:00:53;;;;;;;;;;;;;;;19.50;64.88;95310.22;5156297;27;1027;-51
2022/07/22 01:03:19;;;;;;;;;;;;;;;19.25;65.50;95309.22;5156496;27;1982;-51
2022/07/22 01:05:44;;;;;;;;;;;;;;;19.10;65.99;95315.72;5156210;27;1039;-51
2022/07/22 01:08:10;;;;;;;;;;;;;;;18.87;67.08;95315.28;5156393;27;968;-51
2022/07/22 01:10:36;;;;;;;;;;;;;;;18.68;67.20;95306.09;5156006;27;1234;-51
2022/07/22 01:13:02;;;;;;;;;;;;;;;18.70;67.50;95309.44;5156257;27;964;-50
2022/07/22 01:15:28;;;;;;;;;;;;;;;18.78;67.17;95311.94;5155967;27;968;-50
2022/07/22 01:17:54;;;;;;;;;;;;;;;18.77;66.80;95318.41;5156399;27;1024;-50
2022/07/22 01:20:20;;;;;;;;;;;;;;;18.66;67.22;95316.31;5156078;27;999;-51
2022/07/22 01:22:46;;;;;;;;;;;;;;;18.68;66.67;95316.94;5156179;27;1994;-51
2022/07/22 01:25:12;;;;;;;;;;;;;;;18.76;66.80;95314.00;5155875;27;995;-51
2022/07/22 01:27:38;;;;;;;;;;;;;;;18.81;66.59;95321.56;5156114;27;956;-51
2022/07/22 01:30:05;;;;;;;;;;;;;;;18.67;67.18;95316.09;5155628;27;1047;-50
2022/07/22 01:32:31;;;;;;;;;;;;;;;18.69;66.87;95316.72;5156131;27;1022;-50
2022/07/22 01:34:57;;;;;;;;;;;;;;;18.62;67.40;95321.31;5155670;27;987;-51
2022/07/22 01:37:23;;;;;;;;;;;;;;;18.36;68.08;95322.09;5155760;27;1011;-51
2022/07/22 01:39:49;;;;;;;;;;;;;;;18.50;67.27;95317.56;5155564;27;1054;-51
2022/07/22 01:42:15;;;;;;;;;;;;;;;18.55;67.72;95325.88;5155681;27;1987;-51
2022/07/22 01:44:41;;;;;;;;;;;;;;;18.29;68.50;95327.50;5134857;27;1180;-50
2022/07/22 01:47:08;;;;;;;;;;;;;;;18.37;67.56;95326.47;5135111;27;1165;-50
2022/07/22 01:49:34;;;;;;;;;;;;;;;18.38;67.98;95330.84;5134963;27;1196;-50
2022/07/22 01:52:01;;;;;;;;;;;;;;;18.45;67.14;95326.28;5134896;27;1012;-50
2022/07/22 01:54:27;;;;;;;;;;;;;;;18.59;66.86;95331.72;5134788;27;1040;-50
2022/07/22 01:56:53;;;;;;;;;;;;;;;18.82;65.48;95331.34;5134537;27;1099;-51
2022/07/22 01:59:19;;;;;;;;;;;;;;;18.80;65.79;95334.28;5134431;27;960;-50
2022/07/22 02:01:45;;;;;;;;;;;;;;;18.62;66.92;95326.72;5134073;27;1984;-50
2022/07/22 02:04:11;;;;;;;;;;;;;;;18.39;67.93;95326.28;5134370;27;1012;-50
2022/07/22 02:06:37;;;;;;;;;;;;;;;18.33;67.62;95333.34;5134604;27;957;-50
2022/07/22 02:09:04;;;;;;;;;;;;;;;18.29;68.03;95337.50;5134319;27;1242;-51
2022/07/22 02:11:30;;;;;;;;;;;;;;;18.26;67.81;95329.78;5134464;27;961;-51
2022/07/22 02:13:56;;;;;;;;;;;;;;;18.30;68.47;95333.75;5134518;27;989;-50
2022/07/22 02:16:22;;;;;;;;;;;;;;;18.29;68.34;95334.78;5134442;27;1005;-51
2022/07/22 02:18:48;;;;;;;;;;;;;;;18.17;68.69;95326.41;5134439;27;1059;-50
2022/07/22 02:21:13;;;;;;;;;;;;;;;18.07;68.69;95329.50;5134419;27;1060;-51
2022/07/22 02:23:39;;;;;;;;;;;;;;;18.11;68.45;95330.78;5134354;27;1994;-51
2022/07/22 02:26:05;;;;;;;;;;;;;;;18.23;67.93;95322.91;5134108;28;1063;-51
2022/07/22 02:28:31;;;;;;;;;;;;;;;18.36;67.29;95326.69;5134289;28;1033;-51
2022/07/22 02:30:57;;;;;;;;;;;;;;;18.46;67.02;95329.84;5134391;28;975;-51
2022/07/22 02:33:23;;;;;;;;;;;;;;;18.28;68.07;95333.13;5134207;28;1015;-51
2022/07/22 02:35:49;;;;;;;;;;;;;;;18.07;68.66;95337.63;5134120;28;975;-51
2022/07/22 02:38:15;;;;;;;;;;;;;;;17.82;69.62;95342.72;5134191;28;1011;-51
2022/07/22 02:40:42;;;;;;;;;;;;;;;17.63;70.50;95340.75;5134112;28;1020;-51
2022/07/22 02:43:08;;;;;;;;;;;;;;;17.89;68.99;95335.50;5141071;27;1993;-51
2022/07/22 02:45:34;;;;;;;;;;;;;;;18.01;69.00;95334.91;5154928;27;1028;-51
2022/07/22 02:48:00;;;;;;;;;;;;;;;17.88;69.14;95343.81;5154962;27;965;-51
2022/07/22 02:50:26;;;;;;;;;;;;;;;17.91;69.15;95336.13;5154659;27;1020;-52
2022/07/22 02:52:52;;;;;;;;;;;;;;;17.89;69.53;95342.75;5154712;27;1053;-51
2022/07/22 02:55:18;;;;;;;;;;;;;;;17.64;70.31;95347.81;5155016;27;1546;-51
2022/07/22 02:57:45;;;;;;;;;;;;;;;17.50;70.75;95345.06;5154621;27;1047;-50
2022/07/22 03:00:12;;;;;;;;;;;;;;;17.57;70.58;95345.09;5154920;27;968;-51
2022/07/22 03:02:38;;;;;;;;;;;;;;;17.52;70.99;95345.69;5154702;27;1894;-51
2022/07/22 03:05:05;;;;;;;;;;;;;;;17.24;71.53;95359.22;5154633;27;1028;-51
2022/07/22 03:07:31;;;;;;;;;;;;;;;17.18;71.78;95341.94;5154652;27;973;-51
2022/07/22 03:09:57;;;;;;;;;;;;;;;17.34;71.52;95342.69;5154515;27;1351;-51
2022/07/22 03:12:23;;;;;;;;;;;;;;;17.37;71.47;95345.81;5156783;27;956;-51
2022/07/22 03:14:49;;;;;;;;;;;;;;;17.31;71.37;95354.72;5158886;27;996;-51
2022/07/22 03:17:15;;;;;;;;;;;;;;;17.37;71.40;95344.97;5158321;27;1048;-49
2022/07/22 03:19:41;;;;;;;;;;;;;;;17.14;72.60;95342.53;5158863;27;1010;-51
2022/07/22 03:22:07;;;;;;;;;;;;;;;17.00;72.95;95349.72;5158202;27;1909;-50
2022/07/22 03:24:33;;;;;;;;;;;;;;;17.04;73.19;95348.28;5158426;27;1016;-51
2022/07/22 03:26:59;;;;;;;;;;;;;;;17.01;73.38;95340.56;5158133;27;1035;-50
2022/07/22 03:29:25;;;;;;;;;;;;;;;17.02;73.38;95352.22;5158702;27;969;-51
2022/07/22 03:31:51;;;;;;;;;;;;;;;17.12;72.83;95358.94;5158105;27;1868;-50
2022/07/22 03:34:17;;;;;;;;;;;;;;;17.31;71.94;95357.41;5158028;27;989;-51
2022/07/22 03:36:43;;;;;;;;;;;;;;;17.41;71.90;95348.13;5158170;27;1031;-51
2022/07/22 03:39:09;;;;;;;;;;;;;;;17.39;71.97;95348.31;5158009;27;920;-50
2022/07/22 03:41:35;;;;;;;;;;;;;;;17.66;70.33;95346.59;5158006;27;1010;-51
2022/07/22 03:44:01;;;;;;;;;;;;;;;17.71;70.88;95348.69;5143194;27;1905;-51
2022/07/22 03:46:27;;;;;;;;;;;;;;;17.45;71.87;95357.50;5137385;27;1040;-51
2022/07/22 03:48:53;;;;;;;;;;;;;;;17.31;73.11;95356.59;5137319;27;1218;-51
2022/07/22 03:51:19;;;;;;;;;;;;;;;17.56;72.37;95363.16;5137225;27;1040;-51
2022/07/22 03:53:45;;;;;;;;;;;;;;;17.77;71.52;95364.13;5137035;27;995;-51
2022/07/22 03:56:11;;;;;;;;;;;;;;;17.87;71.43;95358.34;5137004;27;1063;-52
2022/07/22 03:58:37;;;;;;;;;;;;;;;17.96;71.21;95370.69;5136838;27;1869;-52
2022/07/22 04:01:03;;;;;;;;;;;;;;;18.12;71.14;95367.63;5136900;27;1893;-51
2022/07/22 04:03:29;;;;;;;;;;;;;;;18.12;71.10;95369.50;5136846;27;1909;-51
2022/07/22 04:05:55;;;;;;;;;;;;;;;18.29;70.79;95364.56;5136834;27;961;-52
2022/07/22 04:08:21;;;;;;;;;;;;;;;18.33;70.41;95366.66;5136616;27;1024;-51
2022/07/22 04:10:47;;;;;;;;;;;;;;;18.27;71.11;95370.19;5136890;27;1052;-51
2022/07/22 04:13:13;;;;;;;;;;;;;;;18.37;70.60;95369.78;5136424;27;1087;-51
2022/07/22 04:15:38;;;;;;;;;;;;;;;18.71;69.60;95371.50;5136961;27;960;-51
2022/07/22 04:18:04;;;;;;;;;;;;;;;18.96;69.14;95364.69;5136544;27;969;-51
2022/07/22 04:20:30;;;;;;;;;;;;;;;19.09;69.14;95372.81;5136438;27;1023;-51
2022/07/22 04:22:56;;;;;;;;;;;;;;;19.27;69.01;95378.47;5135490;27;1897;-51
2022/07/22 04:25:22;;;;;;;;;;;;;;;19.45;68.62;95376.97;5136393;27;1060;-51
2022/07/22 04:27:49;;;;;;;;;;;;;;;19.53;68.84;95376.75;5118040;27;976;-51
2022/07/22 04:30:15;;;;;;;;;;;;;;;19.61;68.52;95375.69;5136552;27;1007;-51
2022/07/22 04:32:41;;;;;;;;;;;;;;;19.73;67.97;95379.44;5136377;27;964;-51
2022/07/22 04:35:07;;;;;;;;;;;;;;;19.94;68.56;95375.63;5136343;27;1032;-50
2022/07/22 04:37:33;;;;;;;;;;;;;;;20.14;67.48;95380.13;5136201;27;975;-50
2022/07/22 04:40:00;;;;;;;;;;;;;;;20.54;65.29;95374.50;5136209;27;972;-50
2022/07/22 04:42:26;;;;;;;;;;;;;;;20.86;64.80;95373.47;5136993;27;1905;-50
2022/07/22 04:44:51;;;;;;;;;;;;;;;21.10;63.70;95373.75;5156804;27;1032;-51
2022/07/22 04:47:17;;;;;;;;;;;;;;;21.20;64.38;95379.50;5156723;27;1016;-51
2022/07/22 04:49:43;;;;;;;;;;;;;;;21.31;63.34;95380.66;5156726;27;1037;-50
2022/07/22 04:52:09;;;;;;;;;;;;;;;21.51;63.51;95387.84;5156981;27;965;-51
2022/07/22 04:54:36;;;;;;;;;;;;;;;21.69;62.67;95384.34;5156563;27;972;-51
2022/07/22 04:57:02;;;;;;;;;;;;;;;21.87;58.67;95387.03;5156424;27;995;-50
2022/07/22 04:59:28;;;;;;;;;;;;;;;22.02;59.52;95387.53;5156736;27;949;-51
2022/07/22 05:01:53;;;;;;;;;;;;;;;22.17;60.54;95389.03;5156462;27;1980;-51
2022/07/22 05:04:19;;;;;;;;;;;;;;;22.22;60.61;95394.63;5156040;27;1093;-50
2022/07/22 05:06:45;;;;;;;;;;;;;;;22.27;60.02;95391.22;5156482;27;1032;-50
2022/07/22 05:09:11;;;;;;;;;;;;;;;22.29;62.60;95391.84;5156054;27;1656;-51
2022/07/22 05:11:37;;;;;;;;;;;;;;;22.44;60.74;95394.16;5156347;27;948;-50
2022/07/22 05:14:03;;;;;;;;;;;;;;;22.50;60.36;95395.97;5156073;27;971;-51
2022/07/22 05:16:29;;;;;;;;;;;;;;;22.84;60.55;95389.03;5156439;27;999;-50
2022/07/22 05:18:55;;;;;;;;;;;;;;;23.50;58.64;95395.31;5156048;27;1070;-50
2022/07/22 05:21:21;;;;;;;;;;;;;;;23.93;57.32;95402.34;5156208;27;1063;-51
2022/07/22 05:23:47;;;;;;;;;;;;;;;23.73;57.15;95405.44;5155939;27;1918;-51
2022/07/22 05:26:13;;;;;;;;;;;;;;;23.16;58.02;95395.06;5155955;27;1016;-51
2022/07/22 05:28:39;;;;;;;;;;;;;;;22.81;60.25;95401.19;5155885;27;1099;-50
2022/07/22 05:31:05;;;;;;;;;;;;;;;22.89;60.08;95399.22;5155860;27;1083;-51
2022/07/22 05:33:31;;;;;;;;;;;;;;;23.12;59.76;95399.28;5155618;27;1032;-51
2022/07/22 05:35:57;;;;;;;;;;;;;;;23.36;58.09;95399.34;5155675;27;1986;-51
2022/07/22 05:38:23;;;;;;;;;;;;;;;23.68;58.47;95404.47;5155621;27;983;-50
2022/07/22 05:40:49;;;;;;;;;;;;;;;23.77;54.66;95403.03;5155734;27;1030;-50
2022/07/22 05:43:15;;;;;;;;;;;;;;;24.14;55.99;95400.91;5147476;27;1910;-50
2022/07/22 05:45:41;;;;;;;;;;;;;;;24.93;52.86;95400.31;5134995;27;1017;-50
2022/07/22 05:48:07;;;;;;;;;;;;;;;25.62;51.79;95403.97;5135025;27;1019;-50
2022/07/22 05:50:33;;;;;;;;;;;;;;;25.82;50.97;95408.91;5134766;27;1024;-50
2022/07/22 05:52:59;;;;;;;;;;;;;;;26.24;49.36;95403.81;5134874;27;961;-51
2022/07/22 05:55:25;;;;;;;;;;;;;;;26.53;49.29;95403.63;5134560;27;962;-51
2022/07/22 05:57:50;;;;;;;;;;;;;;;26.10;49.76;95414.31;5134743;27;1467;-50
2022/07/22 06:00:16;;;;;;;;;;;;;;;25.44;52.17;95407.78;5134532;27;1012;-51
2022/07/22 06:02:42;;;;;;;;;;;;;;;24.84;54.00;95403.69;5134758;27;1913;-51
2022/07/22 06:05:08;;;;;;;;;;;;;;;24.58;55.22;95405.09;5134265;27;995;-50
2022/07/22 06:07:34;;;;;;;;;;;;;;;24.29;53.47;95397.66;5134638;27;1044;-51
2022/07/22 06:10:26;;;;;;;;;;;;;;;24.26;55.18;95397.31;3623837;27;2066;-56
2022/07/22 06:12:53;;;;;;;;;;;;;;;24.29;54.45;95396.84;5114211;28;974;-51
2022/07/22 06:15:18;;;;;;;;;;;;;;;24.42;54.36;95391.09;5113821;28;1028;-51
2022/07/22 06:17:44;;;;;;;;;;;;;;;24.51;54.15;95386.06;5113995;28;1068;-51
2022/07/22 06:20:10;;;;;;;;;;;;;;;24.77;54.08;95386.59;5113628;28;1036;-51
2022/07/22 06:22:38;;;;;;;;;;;;;;;24.89;53.88;95390.09;5113774;28;1913;-50
2022/07/22 06:25:05;;;;;;;;;;;;;;;24.89;52.76;95384.63;5113852;28;1096;-52
2022/07/22 06:27:31;;;;;;;;;;;;;;;24.95;51.99;95380.94;5113821;28;1068;-51
2022/07/22 06:29:57;;;;;;;;;;;;;;;25.10;50.84;95380.38;5095812;28;968;-52
2022/07/22 06:32:23;;;;;;;;;;;;;;;25.30;52.02;95383.47;5113831;28;1021;-52
2022/07/22 06:34:49;;;;;;;;;;;;;;;25.41;52.65;95380.91;5113528;28;990;-52
2022/07/22 06:37:15;;;;;;;;;;;;;;;25.52;51.39;95382.75;5113674;28;1017;-51
2022/07/22 06:39:41;;;;;;;;;;;;;;;25.64;51.76;95388.94;5113826;28;1017;-51
2022/07/22 06:42:07;;;;;;;;;;;;;;;25.71;48.97;95392.34;5113812;28;1905;-51
2022/07/22 06:44:33;;;;;;;;;;;;;;;25.95;48.61;95385.88;5132623;28;1227;-54
2022/07/22 06:46:59;;;;;;;;;;;;;;;26.04;49.08;95381.63;5136050;27;1847;-52
2022/07/22 06:49:25;;;;;;;;;;;;;;;26.04;48.37;95382.44;5138311;27;1036;-52
2022/07/22 06:51:51;;;;;;;;;;;;;;;26.07;47.88;95384.69;5138436;27;1004;-52
2022/07/22 06:54:17;;;;;;;;;;;;;;;26.16;46.19;95382.34;5138017;27;1094;-52
2022/07/22 06:56:43;;;;;;;;;;;;;;;26.29;48.92;95386.59;5138411;27;965;-51
2022/07/22 06:59:09;;;;;;;;;;;;;;;26.46;47.91;95379.16;5138025;27;1063;-52
2022/07/22 07:01:34;;;;;;;;;;;;;;;26.54;46.25;95382.50;5138013;27;1076;-51
2022/07/22 07:04:01;;;;;;;;;;;;;;;26.70;47.53;95386.31;5137891;27;1909;-51
2022/07/22 07:06:27;;;;;;;;;;;;;;;26.88;48.12;95372.22;5137897;27;1003;-51
2022/07/22 07:08:53;;;;;;;;;;;;;;;26.87;44.99;95371.41;5138243;27;1007;-52
2022/07/22 07:11:19;;;;;;;;;;;;;;;26.94;46.96;95382.19;5145510;27;1253;-52
2022/07/22 07:13:45;;;;;;;;;;;;;;;27.07;48.02;95378.19;5158854;27;1011;-52
2022/07/22 07:16:11;;;;;;;;;;;;;;;27.20;46.56;95379.69;5158553;27;1023;-51
2022/07/22 07:18:37;;;;;;;;;;;;;;;27.29;44.90;95377.31;5140180;27;1863;-51
2022/07/22 07:21:04;;;;;;;;;;;;;;;27.41;45.27;95380.72;5158228;27;960;-51
2022/07/22 07:23:30;;;;;;;;;;;;;;;27.51;46.95;95372.56;5158328;27;1996;-49
2022/07/22 07:25:56;;;;;;;;;;;;;;;27.64;45.88;95377.63;5158442;27;964;-49
2022/07/22 07:28:22;;;;;;;;;;;;;;;27.73;46.58;95374.38;5158379;27;1067;-49
2022/07/22 07:30:48;;;;;;;;;;;;;;;27.87;45.41;95372.84;5158273;27;1195;-52
2022/07/22 07:33:14;;;;;;;;;;;;;;;28.04;46.07;95378.19;5158180;27;1028;-53
2022/07/22 07:35:40;;;;;;;;;;;;;;;28.18;45.20;95375.78;5157963;27;1063;-51
2022/07/22 07:38:06;;;;;;;;;;;;;;;28.35;44.84;95381.09;5158101;27;1067;-51
2022/07/22 07:40:33;;;;;;;;;;;;;;;28.47;44.63;95378.94;5157957;27;1024;-52
2022/07/22 07:42:59;;;;;;;;;;;;;;;28.55;43.80;95369.38;5152122;27;1905;-51
2022/07/22 07:45:25;;;;;;;;;;;;;;;28.69;43.51;95380.72;5137088;27;1032;-52
2022/07/22 07:47:55;;;;;;;;;;;;;;;28.83;43.05;95373.59;5119768;27;1020;-52
2022/07/22 07:50:21;;;;;;;;;;;;;;;29.01;42.63;95375.84;5136935;27;993;-52
2022/07/22 07:52:47;;;;;;;;;;;;;;;29.09;43.71;95376.41;5137147;27;1056;-52
2022/07/22 07:55:14;;;;;;;;;;;;;;;29.18;42.73;95372.03;5137290;27;1294;-52
2022/07/22 07:57:40;;;;;;;;;;;;;;;29.19;42.36;95379.19;5136370;27;1032;-52
2022/07/22 08:00:09;;;;;;;;;;;;;;;29.25;42.42;95378.09;5136590;27;1084;-52
2022/07/22 08:02:35;;;;;;;;;;;;;;;29.34;42.55;95381.97;5137042;27;1913;-51
2022/07/22 08:05:01;;;;;;;;;;;;;;;29.53;41.90;95381.41;5136569;27;961;-51
2022/07/22 08:07:28;;;;;;;;;;;;;;;29.64;40.94;95380.31;5136836;27;965;-51
2022/07/22 08:09:54;;;;;;;;;;;;;;;29.73;40.45;95381.44;5137077;27;1036;-51
2022/07/22 08:12:20;;;;;;;;;;;;;;;29.81;39.91;95376.47;5136485;27;1084;-52
2022/07/22 08:14:46;;;;;;;;;;;;;;;29.91;38.99;95387.47;5118696;27;1144;-52
2022/07/22 08:17:12;;;;;;;;;;;;;;;30.05;38.82;95384.97;5136514;27;1078;-51
2022/07/22 08:19:37;;;;;;;;;;;;;;;30.18;38.30;95389.91;5136702;27;957;-51
2022/07/22 08:22:04;;;;;;;;;;;;;;;30.29;38.26;95385.19;5136234;27;1994;-53
2022/07/22 08:24:30;;;;;;;;;;;;;;;30.32;39.24;95387.44;5136798;27;1102;-51
2022/07/22 08:26:56;;;;;;;;;;;;;;;30.46;38.52;95387.66;5136327;27;1025;-51
2022/07/22 08:29:22;;;;;;;;;;;;;;;30.51;38.14;95385.69;5136426;27;1083;-52
2022/07/22 08:31:48;;;;;;;;;;;;;;;30.54;37.15;95385.16;5136314;27;1007;-51
2022/07/22 08:34:14;;;;;;;;;;;;;;;30.60;37.05;95391.47;5136211;27;1008;-51
2022/07/22 08:36:40;;;;;;;;;;;;;;;30.62;36.95;95383.72;5136425;27;1052;-51
2022/07/22 08:39:06;;;;;;;;;;;;;;;30.66;37.00;95381.25;5136459;27;1051;-52
2022/07/22 08:41:34;;;;;;;;;;;;;;;30.69;36.23;95391.69;5136298;27;1075;-52
2022/07/22 08:44:00;;;;;;;;;;;;;;;30.75;35.68;95390.56;5150651;27;1948;-51
2022/07/22 08:46:26;;;;;;;;;;;;;;;30.87;36.89;95390.25;5156690;27;1020;-52
2022/07/22 08:48:52;;;;;;;;;;;;;;;30.91;35.43;95386.66;5156770;27;1043;-51
2022/07/22 08:51:20;;;;;;;;;;;;;;;30.91;33.90;95383.88;5156445;27;1036;-51
2022/07/22 08:53:46;;;;;;;;;;;;;;;30.98;35.35;95380.81;5156935;27;1027;-51
2022/07/22 08:56:12;;;;;;;;;;;;;;;31.11;34.75;95382.94;5156632;27;1074;-52
2022/07/22 08:58:38;;;;;;;;;;;;;;;31.18;35.04;95379.84;5156755;27;989;-52
2022/07/22 09:01:08;;;;;;;;;;;;;;;31.30;34.97;95379.50;5156422;27;1010;-52
2022/07/22 09:03:42;;;;;;;;;;;;;;;31.32;35.24;95380.88;5156371;27;1993;-51
2022/07/22 09:06:09;;;;;;;;;;;;;;;31.44;35.01;95380.50;5156315;27;957;-52
2022/07/22 09:08:49;;;;;;;;;;;;;;;31.52;35.67;95381.84;5156637;27;1048;-51
2022/07/22 09:11:16;;;;;;;;;;;;;;;31.55;35.10;95388.72;5155962;27;1122;-52
2022/07/22 09:13:42;;;;;;;;;;;;;;;31.52;35.18;95387.38;5156291;27;1850;-52
2022/07/22 09:16:08;;;;;;;;;;;;;;;31.57;35.41;95380.97;5156093;27;1049;-52
2022/07/22 09:18:44;;;;;;;;;;;;;;;31.61;34.09;95384.84;5156128;27;1019;-52
2022/07/22 09:21:11;;;;;;;;;;;;;;;31.61;33.22;95382.88;5155962;27;1032;-52
2022/07/22 09:23:41;;;;;;;;;;;;;;;31.67;33.13;95378.97;5156113;27;1905;-52
2022/07/22 09:26:07;;;;;;;;;;;;;;;31.71;32.82;95374.50;5156036;27;1047;-53
2022/07/22 09:28:33;;;;;;;;;;;;;;;31.67;32.63;95370.66;5155969;27;991;-52
2022/07/22 09:31:00;;;;;;;;;;;;;;;31.80;34.31;95371.94;5155949;27;975;-51
2022/07/22 09:33:26;;;;;;;;;;;;;;;31.90;33.98;95368.25;5155975;27;1063;-51
2022/07/22 09:36:02;;;;;;;;;;;;;;;31.96;35.02;95364.31;5155875;27;1027;-50
2022/07/22 09:38:33;;;;;;;;;;;;;;;32.01;34.78;95363.47;5155853;27;998;-50
2022/07/22 09:40:58;;;;;;;;;;;;;;;32.05;33.46;95367.31;5155864;27;1015;-50
2022/07/22 09:43:28;;;;;;;;;;;;;;;32.08;34.23;95366.72;5145673;27;1910;-50
2022/07/22 09:45:58;;;;;;;;;;;;;;;32.11;34.05;95371.66;5134988;27;1074;-50
2022/07/22 09:48:25;;;;;;;;;;;;;;;32.15;33.70;95364.44;5134870;27;995;-51
2022/07/22 09:50:52;;;;;;;;;;;;;;;32.18;33.16;95363.84;5135030;27;1055;-51
2022/07/22 09:53:19;;;;;;;;;;;;;;;32.22;33.47;95356.59;5134708;27;1064;-51
2022/07/22 09:55:45;;;;;;;;;;;;;;;32.17;32.99;95358.59;5134827;27;1040;-50
2022/07/22 09:58:12;;;;;;;;;;;;;;;32.15;33.54;95353.38;5134487;27;1087;-50
2022/07/22 10:00:39;;;;;;;;;;;;;;;32.28;34.07;95357.38;5134759;27;1020;-51
2022/07/22 10:03:06;;;;;;;;;;;;;;;32.30;34.46;95358.72;5134613;27;1909;-50
2022/07/22 10:05:38;;;;;;;;;;;;;;;32.32;33.51;95347.38;5134390;27;1000;-51
2022/07/22 10:08:05;;;;;;;;;;;;;;;32.30;33.28;95349.59;5134476;27;956;-51
2022/07/22 10:10:33;;;;;;;;;;;;;;;32.28;31.82;95352.66;5134330;27;1246;-51
2022/07/22 10:13:00;;;;;;;;;;;;;;;32.27;31.92;95347.41;5134620;27;952;-50
2022/07/22 10:15:27;;;;;;;;;;;;;;;32.33;33.38;95337.13;5134511;27;996;-50
2022/07/22 10:17:55;;;;;;;;;;;;;;;32.42;33.99;95336.19;5134469;27;1020;-51
2022/07/22 10:20:25;;;;;;;;;;;;;;;32.41;31.25;95330.94;5134331;27;957;-51
2022/07/22 10:22:51;;;;;;;;;;;;;;;32.39;31.61;95322.13;5133634;27;1913;-50
2022/07/22 10:25:21;;;;;;;;;;;;;;;32.45;30.50;95318.97;5134198;27;1091;-51
2022/07/22 10:27:47;;;;;;;;;;;;;;;32.58;31.62;95324.97;5115806;28;1297;-50
2022/07/22 10:30:14;;;;;;;;;;;;;;;32.65;32.58;95328.16;5134453;28;1131;-50
2022/07/22 10:32:40;;;;;;;;;;;;;;;32.65;32.20;95320.69;5134149;28;1036;-51
2022/07/22 10:35:06;;;;;;;;;;;;;;;32.63;32.05;95327.63;5134051;28;921;-50
2022/07/22 10:37:35;;;;;;;;;;;;;;;32.60;31.23;95318.00;5134166;28;1047;-50
2022/07/22 10:40:11;;;;;;;;;;;;;;;32.62;31.92;95318.53;5134626;28;1060;-51
2022/07/22 10:42:56;;;;;;;;;;;;;;;32.60;31.69;95318.00;5137033;27;1905;-50
2022/07/22 10:45:23;;;;;;;;;;;;;;;32.63;30.43;95313.78;5154982;27;952;-50
2022/07/22 10:47:56;;;;;;;;;;;;;;;32.66;30.05;95313.22;5154709;27;1070;-50
2022/07/22 10:50:38;;;;;;;;;;;;;;;32.74;30.67;95314.50;5154755;27;956;-50
2022/07/22 10:53:05;;;;;;;;;;;;;;;32.76;31.45;95310.28;5154826;27;1110;-50
2022/07/22 10:55:31;;;;;;;;;;;;;;;32.76;30.95;95318.59;5155046;27;1052;-50
2022/07/22 10:57:57;;;;;;;;;;;;;;;32.77;29.22;95306.41;5154785;27;900;-50
2022/07/22 11:00:24;;;;;;;;;;;;;;;32.81;29.84;95312.19;5154717;27;1075;-50
2022/07/22 11:02:49;;;;;;;;;;;;;;;32.77;29.62;95314.72;5154495;27;1984;-50
2022/07/22 11:05:25;;;;;;;;;;;;;;;32.72;29.88;95300.94;5154711;27;1044;-50
2022/07/22 11:07:51;;;;;;;;;;;;;;;32.74;30.00;95304.22;5154801;27;1023;-50
2022/07/22 11:10:18;;;;;;;;;;;;;;;32.83;29.37;95307.97;5154521;27;1083;-51
2022/07/22 11:12:48;;;;;;;;;;;;;;;32.87;27.78;95300.72;5154573;27;1229;-51
2022/07/22 11:15:15;;;;;;;;;;;;;;;32.90;28.70;95298.47;5154520;27;977;-50
2022/07/22 11:17:41;;;;;;;;;;;;;;;32.83;29.41;95302.44;5154628;27;956;-50
2022/07/22 11:20:11;;;;;;;;;;;;;;;32.90;30.48;95298.47;5154547;27;980;-51
2022/07/22 11:22:37;;;;;;;;;;;;;;;32.92;29.68;95280.47;5154509;27;1913;-50
2022/07/22 11:25:05;;;;;;;;;;;;;;;32.94;31.30;95296.78;5136048;27;1064;-50
2022/07/22 11:27:31;;;;;;;;;;;;;;;32.88;31.01;95291.31;5154499;27;1031;-50
2022/07/22 11:29:58;;;;;;;;;;;;;;;32.93;30.37;95284.84;5154233;27;1087;-50
2022/07/22 11:32:25;;;;;;;;;;;;;;;33.03;31.70;95289.41;5155412;27;1031;-50
2022/07/22 11:34:51;;;;;;;;;;;;;;;33.05;31.46;95292.72;5158095;27;1056;-51
2022/07/22 11:37:18;;;;;;;;;;;;;;;33.08;31.06;95281.84;5139996;27;964;-50
2022/07/22 11:39:45;;;;;;;;;;;;;;;33.06;31.25;95286.06;5157956;27;1015;-50
2022/07/22 11:42:11;;;;;;;;;;;;;;;33.08;30.77;95284.63;5158040;27;1962;-50
2022/07/22 11:44:37;;;;;;;;;;;;;;;33.11;30.55;95283.25;5137802;27;1172;-50
2022/07/22 11:47:04;;;;;;;;;;;;;;;33.11;30.13;95282.44;5137156;27;1024;-50
2022/07/22 11:49:33;;;;;;;;;;;;;;;33.14;30.59;95279.03;5137357;27;942;-51
2022/07/22 11:51:59;;;;;;;;;;;;;;;33.17;31.05;95279.25;5137359;27;992;-50
2022/07/22 11:54:25;;;;;;;;;;;;;;;33.23;29.92;95280.81;5137127;27;1024;-51
2022/07/22 11:56:51;;;;;;;;;;;;;;;33.15;29.84;95284.28;5137146;27;1007;-51
2022/07/22 11:59:17;;;;;;;;;;;;;;;33.13;30.21;95280.19;5136735;27;1039;-50
2022/07/22 12:01:44;;;;;;;;;;;;;;;33.17;30.42;95279.25;5136966;27;1032;-51
2022/07/22 12:04:11;;;;;;;;;;;;;;;33.16;30.41;95280.41;5136667;27;1933;-50
2022/07/22 12:06:39;;;;;;;;;;;;;;;33.11;29.78;95276.88;5137290;27;942;-50
2022/07/22 12:09:09;;;;;;;;;;;;;;;33.08;29.58;95275.50;5136636;27;1020;-50
2022/07/22 12:11:37;;;;;;;;;;;;;;;33.11;29.67;95274.13;5136619;27;1095;-51
2022/07/22 12:14:08;;;;;;;;;;;;;;;33.12;29.05;95273.78;5118424;27;988;-50
2022/07/22 12:16:34;;;;;;;;;;;;;;;33.10;28.61;95264.94;5137003;27;1059;-51
2022/07/22 12:19:04;;;;;;;;;;;;;;;33.12;29.05;95262.72;5118362;27;1167;-50
2022/07/22 12:21:32;;;;;;;;;;;;;;;33.13;29.31;95267.13;5136812;27;981;-51
2022/07/22 12:24:05;;;;;;;;;;;;;;;33.17;29.79;95254.31;5136374;27;1902;-51
2022/07/22 12:26:48;;;;;;;;;;;;;;;33.21;29.06;95271.16;5136337;27;949;-50
2022/07/22 12:29:14;;;;;;;;;;;;;;;33.18;29.90;95250.44;5136418;27;1206;-50
2022/07/22 12:31:47;;;;;;;;;;;;;;;33.23;28.96;95255.06;5136686;27;992;-51
2022/07/22 12:34:13;;;;;;;;;;;;;;;33.25;28.55;95261.13;5136127;27;1009;-50
2022/07/22 12:36:43;;;;;;;;;;;;;;;33.29;27.94;95259.38;5136228;27;1012;-50
2022/07/22 12:39:17;;;;;;;;;;;;;;;33.28;28.04;95260.53;5136251;27;936;-50
2022/07/22 12:41:50;;;;;;;;;;;;;;;33.21;26.99;95249.81;5136114;27;1991;-51
2022/07/22 12:44:19;;;;;;;;;;;;;;;33.14;28.21;95252.16;5152337;27;1989;-50
2022/07/22 12:46:47;;;;;;;;;;;;;;;33.19;29.17;95252.06;5156663;27;969;-50
2022/07/22 12:49:14;;;;;;;;;;;;;;;33.25;29.29;95258.34;5156830;27;1045;-50
2022/07/22 12:51:40;;;;;;;;;;;;;;;33.26;28.16;95252.50;5156554;27;957;-50
2022/07/22 12:54:06;;;;;;;;;;;;;;;33.24;27.85;95251.19;5156805;27;1090;-49
2022/07/22 12:56:33;;;;;;;;;;;;;;;33.19;28.43;95243.75;5156742;27;968;-50
2022/07/22 12:59:00;;;;;;;;;;;;;;;33.14;27.93;95249.38;5156579;27;1055;-49